sensor_id;sensor_type;location;lat;lon;timestamp;P1;durP1;ratioP1;P2;durP2;ratioP2
12554;SDS011;6343;50.868;4.700;2023-04-06T00:01:09;15.80;;;9.00;;
12554;SDS011;6343;50.868;4.700;2023-04-06T00:03:36;13.37;;;8.10;;
12554;SDS011;6343;50.868;4.700;2023-04-06T00:06:02;15.37;;;8.93;;
12554;SDS011;6343;50.868;4.700;2023-04-06T00:08:29;20.90;;;9.63;;
12554;SDS011;6343;50.868;4.700;2023-04-06T00:10:55;15.07;;;9.10;;
12554;SDS011;6343;50.868;4.700;2023-04-06T00:13:21;17.73;;;9.47;;
12554;SDS011;6343;50.868;4.700;2023-04-06T00:15:47;17.13;;;9.23;;
12554;SDS011;6343;50.868;4.700;2023-04-06T00:18:13;14.83;;;8.70;;
12554;SDS011;6343;50.868;4.700;2023-04-06T00:20:39;13.57;;;9.23;;
12554;SDS011;6343;50.868;4.700;2023-04-06T00:23:05;13.80;;;8.43;;
12554;SDS011;6343;50.868;4.700;2023-04-06T00:25:31;14.87;;;9.43;;
12554;SDS011;6343;50.868;4.700;2023-04-06T00:27:58;14.57;;;8.40;;
12554;SDS011;6343;50.868;4.700;2023-04-06T00:30:24;15.57;;;9.10;;
12554;SDS011;6343;50.868;4.700;2023-04-06T00:32:50;17.23;;;9.37;;
12554;SDS011;6343;50.868;4.700;2023-04-06T00:35:16;18.13;;;10.47;;
12554;SDS011;6343;50.868;4.700;2023-04-06T00:37:42;17.50;;;9.83;;
12554;SDS011;6343;50.868;4.700;2023-04-06T00:40:08;15.47;;;9.07;;
12554;SDS011;6343;50.868;4.700;2023-04-06T00:42:35;15.63;;;9.40;;
12554;SDS011;6343;50.868;4.700;2023-04-06T00:45:01;17.70;;;9.77;;
12554;SDS011;6343;50.868;4.700;2023-04-06T00:47:28;16.60;;;9.97;;
12554;SDS011;6343;50.868;4.700;2023-04-06T00:49:54;17.50;;;9.27;;
12554;SDS011;6343;50.868;4.700;2023-04-06T00:52:20;15.80;;;9.13;;
12554;SDS011;6343;50.868;4.700;2023-04-06T00:54:47;19.53;;;10.23;;
12554;SDS011;6343;50.868;4.700;2023-04-06T00:57:13;15.70;;;9.03;;
12554;SDS011;6343;50.868;4.700;2023-04-06T00:59:39;18.40;;;9.50;;
12554;SDS011;6343;50.868;4.700;2023-04-06T01:02:06;17.00;;;10.20;;
12554;SDS011;6343;50.868;4.700;2023-04-06T01:04:32;16.47;;;10.13;;
12554;SDS011;6343;50.868;4.700;2023-04-06T01:06:58;16.67;;;9.73;;
12554;SDS011;6343;50.868;4.700;2023-04-06T01:09:24;16.53;;;9.60;;
12554;SDS011;6343;50.868;4.700;2023-04-06T01:11:51;15.73;;;9.67;;
12554;SDS011;6343;50.868;4.700;2023-04-06T01:14:17;14.60;;;9.07;;
12554;SDS011;6343;50.868;4.700;2023-04-06T01:16:43;14.90;;;9.70;;
12554;SDS011;6343;50.868;4.700;2023-04-06T01:19:10;15.13;;;10.47;;
12554;SDS011;6343;50.868;4.700;2023-04-06T01:21:37;18.73;;;10.10;;
12554;SDS011;6343;50.868;4.700;2023-04-06T01:24:03;18.00;;;10.13;;
12554;SDS011;6343;50.868;4.700;2023-04-06T01:26:30;19.50;;;10.10;;
12554;SDS011;6343;50.868;4.700;2023-04-06T01:28:56;17.77;;;10.67;;
12554;SDS011;6343;50.868;4.700;2023-04-06T01:31:22;15.07;;;9.73;;
12554;SDS011;6343;50.868;4.700;2023-04-06T01:33:48;15.93;;;9.87;;
12554;SDS011;6343;50.868;4.700;2023-04-06T01:36:15;15.50;;;9.20;;
12554;SDS011;6343;50.868;4.700;2023-04-06T01:38:41;13.30;;;8.93;;
12554;SDS011;6343;50.868;4.700;2023-04-06T01:41:07;15.33;;;8.23;;
12554;SDS011;6343;50.868;4.700;2023-04-06T01:43:34;15.23;;;9.13;;
12554;SDS011;6343;50.868;4.700;2023-04-06T01:46:00;16.90;;;10.60;;
12554;SDS011;6343;50.868;4.700;2023-04-06T01:48:27;13.70;;;9.27;;
12554;SDS011;6343;50.868;4.700;2023-04-06T01:50:53;19.43;;;9.50;;
12554;SDS011;6343;50.868;4.700;2023-04-06T01:53:19;14.33;;;8.97;;
12554;SDS011;6343;50.868;4.700;2023-04-06T01:55:45;16.20;;;10.17;;
12554;SDS011;6343;50.868;4.700;2023-04-06T01:58:12;18.00;;;9.60;;
12554;SDS011;6343;50.868;4.700;2023-04-06T02:00:38;15.63;;;9.33;;
12554;SDS011;6343;50.868;4.700;2023-04-06T02:03:04;16.53;;;10.17;;
12554;SDS011;6343;50.868;4.700;2023-04-06T02:05:31;17.40;;;10.37;;
12554;SDS011;6343;50.868;4.700;2023-04-06T02:08:06;17.83;;;10.30;;
12554;SDS011;6343;50.868;4.700;2023-04-06T02:10:32;14.73;;;8.97;;
12554;SDS011;6343;50.868;4.700;2023-04-06T02:12:59;16.40;;;9.50;;
12554;SDS011;6343;50.868;4.700;2023-04-06T02:15:25;13.13;;;9.50;;
12554;SDS011;6343;50.868;4.700;2023-04-06T02:17:52;13.67;;;9.00;;
12554;SDS011;6343;50.868;4.700;2023-04-06T02:20:18;13.93;;;9.33;;
12554;SDS011;6343;50.868;4.700;2023-04-06T02:22:44;14.67;;;9.73;;
12554;SDS011;6343;50.868;4.700;2023-04-06T02:25:10;15.13;;;9.57;;
12554;SDS011;6343;50.868;4.700;2023-04-06T02:27:37;17.63;;;10.00;;
12554;SDS011;6343;50.868;4.700;2023-04-06T02:30:03;19.50;;;10.40;;
12554;SDS011;6343;50.868;4.700;2023-04-06T02:32:29;18.30;;;10.30;;
12554;SDS011;6343;50.868;4.700;2023-04-06T02:34:56;16.47;;;10.03;;
12554;SDS011;6343;50.868;4.700;2023-04-06T02:37:22;18.10;;;9.80;;
12554;SDS011;6343;50.868;4.700;2023-04-06T02:39:51;15.37;;;9.63;;
12554;SDS011;6343;50.868;4.700;2023-04-06T02:42:17;15.60;;;9.87;;
12554;SDS011;6343;50.868;4.700;2023-04-06T02:44:43;15.60;;;9.60;;
12554;SDS011;6343;50.868;4.700;2023-04-06T02:47:10;20.17;;;10.17;;
12554;SDS011;6343;50.868;4.700;2023-04-06T02:49:36;27.80;;;10.57;;
12554;SDS011;6343;50.868;4.700;2023-04-06T02:52:02;14.73;;;9.37;;
12554;SDS011;6343;50.868;4.700;2023-04-06T02:54:29;14.27;;;9.23;;
12554;SDS011;6343;50.868;4.700;2023-04-06T02:56:55;14.50;;;9.20;;
12554;SDS011;6343;50.868;4.700;2023-04-06T02:59:21;17.73;;;9.17;;
12554;SDS011;6343;50.868;4.700;2023-04-06T03:01:47;15.30;;;9.57;;
12554;SDS011;6343;50.868;4.700;2023-04-06T03:04:13;16.07;;;9.30;;
12554;SDS011;6343;50.868;4.700;2023-04-06T03:06:39;16.67;;;8.83;;
12554;SDS011;6343;50.868;4.700;2023-04-06T03:09:06;15.50;;;9.13;;
12554;SDS011;6343;50.868;4.700;2023-04-06T03:11:32;16.77;;;10.23;;
12554;SDS011;6343;50.868;4.700;2023-04-06T03:13:58;17.07;;;9.70;;
12554;SDS011;6343;50.868;4.700;2023-04-06T03:16:24;17.93;;;9.60;;
12554;SDS011;6343;50.868;4.700;2023-04-06T03:18:50;15.57;;;9.30;;
12554;SDS011;6343;50.868;4.700;2023-04-06T03:21:16;13.20;;;8.90;;
12554;SDS011;6343;50.868;4.700;2023-04-06T03:23:44;16.50;;;9.87;;
12554;SDS011;6343;50.868;4.700;2023-04-06T03:26:10;19.13;;;9.63;;
12554;SDS011;6343;50.868;4.700;2023-04-06T03:28:36;16.87;;;9.07;;
12554;SDS011;6343;50.868;4.700;2023-04-06T03:31:03;16.37;;;9.73;;
12554;SDS011;6343;50.868;4.700;2023-04-06T03:33:29;13.93;;;9.60;;
12554;SDS011;6343;50.868;4.700;2023-04-06T03:35:55;18.17;;;10.63;;
12554;SDS011;6343;50.868;4.700;2023-04-06T03:38:21;15.97;;;9.50;;
12554;SDS011;6343;50.868;4.700;2023-04-06T03:40:47;14.67;;;9.40;;
12554;SDS011;6343;50.868;4.700;2023-04-06T03:43:13;15.93;;;10.30;;
12554;SDS011;6343;50.868;4.700;2023-04-06T03:45:39;14.57;;;9.90;;
12554;SDS011;6343;50.868;4.700;2023-04-06T03:48:05;17.93;;;10.57;;
12554;SDS011;6343;50.868;4.700;2023-04-06T03:50:31;14.70;;;10.03;;
12554;SDS011;6343;50.868;4.700;2023-04-06T03:52:58;17.70;;;9.97;;
12554;SDS011;6343;50.868;4.700;2023-04-06T03:55:24;16.70;;;8.93;;
12554;SDS011;6343;50.868;4.700;2023-04-06T03:57:50;16.60;;;9.43;;
12554;SDS011;6343;50.868;4.700;2023-04-06T04:00:16;16.17;;;9.80;;
12554;SDS011;6343;50.868;4.700;2023-04-06T04:02:42;13.87;;;9.03;;
12554;SDS011;6343;50.868;4.700;2023-04-06T04:05:08;16.30;;;10.63;;
12554;SDS011;6343;50.868;4.700;2023-04-06T04:07:34;15.67;;;8.97;;
12554;SDS011;6343;50.868;4.700;2023-04-06T04:10:00;14.87;;;9.80;;
12554;SDS011;6343;50.868;4.700;2023-04-06T04:12:26;16.90;;;10.00;;
12554;SDS011;6343;50.868;4.700;2023-04-06T04:14:52;21.10;;;9.27;;
12554;SDS011;6343;50.868;4.700;2023-04-06T04:17:19;16.20;;;10.00;;
12554;SDS011;6343;50.868;4.700;2023-04-06T04:19:45;13.70;;;9.37;;
12554;SDS011;6343;50.868;4.700;2023-04-06T04:22:11;13.87;;;9.27;;
12554;SDS011;6343;50.868;4.700;2023-04-06T04:24:37;20.03;;;10.60;;
12554;SDS011;6343;50.868;4.700;2023-04-06T04:27:03;18.93;;;9.33;;
12554;SDS011;6343;50.868;4.700;2023-04-06T04:29:30;14.43;;;9.50;;
12554;SDS011;6343;50.868;4.700;2023-04-06T04:31:56;14.33;;;9.63;;
12554;SDS011;6343;50.868;4.700;2023-04-06T04:34:22;19.13;;;9.97;;
12554;SDS011;6343;50.868;4.700;2023-04-06T04:36:50;19.13;;;9.47;;
12554;SDS011;6343;50.868;4.700;2023-04-06T04:39:16;15.07;;;9.30;;
12554;SDS011;6343;50.868;4.700;2023-04-06T04:41:42;22.37;;;10.10;;
12554;SDS011;6343;50.868;4.700;2023-04-06T04:44:08;18.13;;;10.90;;
12554;SDS011;6343;50.868;4.700;2023-04-06T04:46:35;22.17;;;9.93;;
12554;SDS011;6343;50.868;4.700;2023-04-06T04:49:01;18.73;;;9.73;;
12554;SDS011;6343;50.868;4.700;2023-04-06T04:51:27;16.37;;;10.10;;
12554;SDS011;6343;50.868;4.700;2023-04-06T04:53:53;14.70;;;9.30;;
12554;SDS011;6343;50.868;4.700;2023-04-06T04:56:19;13.53;;;9.50;;
12554;SDS011;6343;50.868;4.700;2023-04-06T04:58:45;16.30;;;9.37;;
12554;SDS011;6343;50.868;4.700;2023-04-06T05:01:11;16.37;;;9.73;;
12554;SDS011;6343;50.868;4.700;2023-04-06T05:03:37;14.60;;;9.53;;
12554;SDS011;6343;50.868;4.700;2023-04-06T05:06:04;16.57;;;10.30;;
12554;SDS011;6343;50.868;4.700;2023-04-06T05:08:31;15.23;;;9.60;;
12554;SDS011;6343;50.868;4.700;2023-04-06T05:10:57;16.63;;;10.47;;
12554;SDS011;6343;50.868;4.700;2023-04-06T05:13:23;16.90;;;10.00;;
12554;SDS011;6343;50.868;4.700;2023-04-06T05:15:49;16.07;;;9.43;;
12554;SDS011;6343;50.868;4.700;2023-04-06T05:18:15;15.60;;;9.60;;
12554;SDS011;6343;50.868;4.700;2023-04-06T05:20:42;24.83;;;10.83;;
12554;SDS011;6343;50.868;4.700;2023-04-06T05:23:08;17.53;;;10.27;;
12554;SDS011;6343;50.868;4.700;2023-04-06T05:25:34;18.63;;;9.37;;
12554;SDS011;6343;50.868;4.700;2023-04-06T05:28:00;18.93;;;11.00;;
12554;SDS011;6343;50.868;4.700;2023-04-06T05:30:26;17.60;;;10.50;;
12554;SDS011;6343;50.868;4.700;2023-04-06T05:32:53;16.87;;;10.37;;
12554;SDS011;6343;50.868;4.700;2023-04-06T05:35:19;16.90;;;9.97;;
12554;SDS011;6343;50.868;4.700;2023-04-06T05:37:45;15.80;;;9.60;;
12554;SDS011;6343;50.868;4.700;2023-04-06T05:40:11;17.80;;;10.10;;
12554;SDS011;6343;50.868;4.700;2023-04-06T05:42:38;17.23;;;10.07;;
12554;SDS011;6343;50.868;4.700;2023-04-06T05:45:07;15.93;;;9.93;;
12554;SDS011;6343;50.868;4.700;2023-04-06T05:47:33;17.30;;;10.17;;
12554;SDS011;6343;50.868;4.700;2023-04-06T05:49:59;17.73;;;10.67;;
12554;SDS011;6343;50.868;4.700;2023-04-06T05:52:25;15.13;;;9.97;;
12554;SDS011;6343;50.868;4.700;2023-04-06T05:54:52;21.20;;;10.23;;
12554;SDS011;6343;50.868;4.700;2023-04-06T05:57:18;19.00;;;9.80;;
12554;SDS011;6343;50.868;4.700;2023-04-06T05:59:44;23.27;;;10.23;;
12554;SDS011;6343;50.868;4.700;2023-04-06T06:02:10;19.00;;;10.87;;
12554;SDS011;6343;50.868;4.700;2023-04-06T06:04:36;14.90;;;10.13;;
12554;SDS011;6343;50.868;4.700;2023-04-06T06:07:02;15.50;;;9.93;;
12554;SDS011;6343;50.868;4.700;2023-04-06T06:09:28;18.27;;;10.50;;
12554;SDS011;6343;50.868;4.700;2023-04-06T06:11:55;19.97;;;10.37;;
12554;SDS011;6343;50.868;4.700;2023-04-06T06:14:21;14.67;;;10.00;;
12554;SDS011;6343;50.868;4.700;2023-04-06T06:16:47;18.30;;;10.07;;
12554;SDS011;6343;50.868;4.700;2023-04-06T06:19:13;19.63;;;10.37;;
12554;SDS011;6343;50.868;4.700;2023-04-06T06:21:39;19.53;;;9.73;;
12554;SDS011;6343;50.868;4.700;2023-04-06T06:24:06;21.17;;;11.50;;
12554;SDS011;6343;50.868;4.700;2023-04-06T06:26:33;19.20;;;10.13;;
12554;SDS011;6343;50.868;4.700;2023-04-06T06:29:02;15.57;;;9.53;;
12554;SDS011;6343;50.868;4.700;2023-04-06T06:31:28;17.93;;;10.47;;
12554;SDS011;6343;50.868;4.700;2023-04-06T06:33:54;16.77;;;9.83;;
12554;SDS011;6343;50.868;4.700;2023-04-06T06:36:20;19.37;;;10.23;;
12554;SDS011;6343;50.868;4.700;2023-04-06T06:38:47;22.73;;;10.20;;
12554;SDS011;6343;50.868;4.700;2023-04-06T06:41:13;18.53;;;10.10;;
12554;SDS011;6343;50.868;4.700;2023-04-06T06:43:39;40.73;;;11.40;;
12554;SDS011;6343;50.868;4.700;2023-04-06T06:46:05;22.13;;;10.83;;
12554;SDS011;6343;50.868;4.700;2023-04-06T06:48:31;20.33;;;10.47;;
12554;SDS011;6343;50.868;4.700;2023-04-06T06:50:58;31.77;;;10.63;;
12554;SDS011;6343;50.868;4.700;2023-04-06T06:53:24;17.60;;;10.53;;
12554;SDS011;6343;50.868;4.700;2023-04-06T06:55:50;15.57;;;9.97;;
12554;SDS011;6343;50.868;4.700;2023-04-06T06:58:19;21.83;;;9.57;;
12554;SDS011;6343;50.868;4.700;2023-04-06T07:00:46;18.50;;;9.57;;
12554;SDS011;6343;50.868;4.700;2023-04-06T07:03:12;22.47;;;10.20;;
12554;SDS011;6343;50.868;4.700;2023-04-06T07:05:38;15.37;;;9.90;;
12554;SDS011;6343;50.868;4.700;2023-04-06T07:08:04;26.90;;;9.97;;
12554;SDS011;6343;50.868;4.700;2023-04-06T07:10:30;22.63;;;9.90;;
12554;SDS011;6343;50.868;4.700;2023-04-06T07:12:56;17.93;;;9.40;;
12554;SDS011;6343;50.868;4.700;2023-04-06T07:15:23;22.27;;;10.50;;
12554;SDS011;6343;50.868;4.700;2023-04-06T07:17:49;16.77;;;10.20;;
12554;SDS011;6343;50.868;4.700;2023-04-06T07:20:15;17.07;;;9.23;;
12554;SDS011;6343;50.868;4.700;2023-04-06T07:22:42;19.03;;;11.03;;
12554;SDS011;6343;50.868;4.700;2023-04-06T07:25:10;18.87;;;10.53;;
12554;SDS011;6343;50.868;4.700;2023-04-06T07:27:36;22.33;;;10.80;;
12554;SDS011;6343;50.868;4.700;2023-04-06T07:30:02;19.43;;;10.17;;
12554;SDS011;6343;50.868;4.700;2023-04-06T07:32:28;18.30;;;9.43;;
12554;SDS011;6343;50.868;4.700;2023-04-06T07:34:55;17.87;;;10.47;;
12554;SDS011;6343;50.868;4.700;2023-04-06T07:37:22;16.30;;;9.80;;
12554;SDS011;6343;50.868;4.700;2023-04-06T07:39:48;18.70;;;10.77;;
12554;SDS011;6343;50.868;4.700;2023-04-06T07:42:14;16.27;;;10.03;;
12554;SDS011;6343;50.868;4.700;2023-04-06T07:44:40;18.57;;;10.03;;
12554;SDS011;6343;50.868;4.700;2023-04-06T07:47:06;15.07;;;9.90;;
12554;SDS011;6343;50.868;4.700;2023-04-06T07:49:32;21.27;;;10.83;;
12554;SDS011;6343;50.868;4.700;2023-04-06T07:51:58;16.03;;;10.33;;
12554;SDS011;6343;50.868;4.700;2023-04-06T07:54:25;17.07;;;10.43;;
12554;SDS011;6343;50.868;4.700;2023-04-06T07:56:51;16.83;;;10.33;;
12554;SDS011;6343;50.868;4.700;2023-04-06T07:59:17;15.60;;;10.07;;
12554;SDS011;6343;50.868;4.700;2023-04-06T08:01:43;16.47;;;10.67;;
12554;SDS011;6343;50.868;4.700;2023-04-06T08:04:10;15.20;;;9.57;;
12554;SDS011;6343;50.868;4.700;2023-04-06T08:06:36;18.07;;;10.53;;
12554;SDS011;6343;50.868;4.700;2023-04-06T08:09:02;15.60;;;10.13;;
12554;SDS011;6343;50.868;4.700;2023-04-06T08:11:28;13.97;;;8.77;;
12554;SDS011;6343;50.868;4.700;2023-04-06T08:13:56;17.03;;;9.53;;
12554;SDS011;6343;50.868;4.700;2023-04-06T08:16:23;15.17;;;9.33;;
12554;SDS011;6343;50.868;4.700;2023-04-06T08:18:49;15.13;;;9.07;;
12554;SDS011;6343;50.868;4.700;2023-04-06T08:21:15;14.97;;;8.87;;
12554;SDS011;6343;50.868;4.700;2023-04-06T08:23:41;13.60;;;8.23;;
12554;SDS011;6343;50.868;4.700;2023-04-06T08:26:07;16.53;;;8.20;;
12554;SDS011;6343;50.868;4.700;2023-04-06T08:28:34;13.07;;;8.63;;
12554;SDS011;6343;50.868;4.700;2023-04-06T08:31:07;14.70;;;8.77;;
12554;SDS011;6343;50.868;4.700;2023-04-06T08:33:33;15.67;;;8.70;;
12554;SDS011;6343;50.868;4.700;2023-04-06T08:36:11;11.43;;;7.70;;
12554;SDS011;6343;50.868;4.700;2023-04-06T08:38:37;15.50;;;8.17;;
12554;SDS011;6343;50.868;4.700;2023-04-06T08:41:07;14.10;;;7.90;;
12554;SDS011;6343;50.868;4.700;2023-04-06T08:43:35;14.70;;;8.10;;
12554;SDS011;6343;50.868;4.700;2023-04-06T08:46:02;12.47;;;8.03;;
12554;SDS011;6343;50.868;4.700;2023-04-06T08:48:28;15.73;;;8.83;;
12554;SDS011;6343;50.868;4.700;2023-04-06T08:50:55;15.07;;;7.90;;
12554;SDS011;6343;50.868;4.700;2023-04-06T08:53:21;11.90;;;8.00;;
12554;SDS011;6343;50.868;4.700;2023-04-06T08:55:47;13.00;;;8.60;;
12554;SDS011;6343;50.868;4.700;2023-04-06T08:58:13;11.63;;;7.70;;
12554;SDS011;6343;50.868;4.700;2023-04-06T09:00:39;18.20;;;7.73;;
12554;SDS011;6343;50.868;4.700;2023-04-06T09:03:06;13.30;;;8.67;;
12554;SDS011;6343;50.868;4.700;2023-04-06T09:05:32;13.80;;;7.47;;
12554;SDS011;6343;50.868;4.700;2023-04-06T09:07:58;11.23;;;7.57;;
12554;SDS011;6343;50.868;4.700;2023-04-06T09:10:25;14.93;;;8.07;;
12554;SDS011;6343;50.868;4.700;2023-04-06T09:12:51;11.97;;;7.27;;
12554;SDS011;6343;50.868;4.700;2023-04-06T09:15:18;11.70;;;8.07;;
12554;SDS011;6343;50.868;4.700;2023-04-06T09:17:44;11.20;;;7.97;;
12554;SDS011;6343;50.868;4.700;2023-04-06T09:20:11;10.33;;;7.70;;
12554;SDS011;6343;50.868;4.700;2023-04-06T09:22:38;12.30;;;8.20;;
12554;SDS011;6343;50.868;4.700;2023-04-06T09:25:04;11.63;;;7.13;;
12554;SDS011;6343;50.868;4.700;2023-04-06T09:27:40;10.57;;;7.37;;
12554;SDS011;6343;50.868;4.700;2023-04-06T09:30:07;13.85;;;7.85;;
12554;SDS011;6343;50.868;4.700;2023-04-06T09:32:55;11.23;;;6.97;;
12554;SDS011;6343;50.868;4.700;2023-04-06T09:35:20;12.13;;;7.53;;
12554;SDS011;6343;50.868;4.700;2023-04-06T09:37:47;12.47;;;7.40;;
12554;SDS011;6343;50.868;4.700;2023-04-06T09:40:13;13.37;;;7.80;;
12554;SDS011;6343;50.868;4.700;2023-04-06T09:42:42;11.80;;;8.43;;
12554;SDS011;6343;50.868;4.700;2023-04-06T09:45:11;12.53;;;8.03;;
12554;SDS011;6343;50.868;4.700;2023-04-06T09:47:37;11.57;;;7.60;;
12554;SDS011;6343;50.868;4.700;2023-04-06T09:50:05;12.03;;;7.63;;
12554;SDS011;6343;50.868;4.700;2023-04-06T09:52:32;12.73;;;7.60;;
12554;SDS011;6343;50.868;4.700;2023-04-06T09:55:03;15.23;;;8.60;;
12554;SDS011;6343;50.868;4.700;2023-04-06T09:57:32;11.77;;;8.27;;
12554;SDS011;6343;50.868;4.700;2023-04-06T10:02:27;14.23;;;8.60;;
12554;SDS011;6343;50.868;4.700;2023-04-06T10:04:56;12.60;;;8.53;;
12554;SDS011;6343;50.868;4.700;2023-04-06T10:07:25;13.03;;;8.90;;
12554;SDS011;6343;50.868;4.700;2023-04-06T10:09:54;13.77;;;8.53;;
12554;SDS011;6343;50.868;4.700;2023-04-06T10:12:21;11.03;;;7.70;;
12554;SDS011;6343;50.868;4.700;2023-04-06T10:14:47;11.47;;;7.67;;
12554;SDS011;6343;50.868;4.700;2023-04-06T10:17:14;12.37;;;7.20;;
12554;SDS011;6343;50.868;4.700;2023-04-06T10:19:49;10.53;;;7.53;;
12554;SDS011;6343;50.868;4.700;2023-04-06T10:22:21;10.70;;;7.93;;
12554;SDS011;6343;50.868;4.700;2023-04-06T10:24:50;13.33;;;8.23;;
12554;SDS011;6343;50.868;4.700;2023-04-06T10:27:16;19.47;;;11.90;;
12554;SDS011;6343;50.868;4.700;2023-04-06T10:29:52;27.03;;;16.57;;
12554;SDS011;6343;50.868;4.700;2023-04-06T10:32:18;31.57;;;17.60;;
12554;SDS011;6343;50.868;4.700;2023-04-06T10:34:45;27.70;;;15.97;;
12554;SDS011;6343;50.868;4.700;2023-04-06T10:37:14;23.20;;;14.80;;
12554;SDS011;6343;50.868;4.700;2023-04-06T10:39:47;18.87;;;11.77;;
12554;SDS011;6343;50.868;4.700;2023-04-06T10:42:13;15.13;;;10.00;;
12554;SDS011;6343;50.868;4.700;2023-04-06T10:44:43;23.13;;;14.70;;
12554;SDS011;6343;50.868;4.700;2023-04-06T10:47:16;15.80;;;9.87;;
12554;SDS011;6343;50.868;4.700;2023-04-06T10:49:45;14.73;;;8.90;;
12554;SDS011;6343;50.868;4.700;2023-04-06T10:52:11;20.33;;;13.80;;
12554;SDS011;6343;50.868;4.700;2023-04-06T10:54:40;29.57;;;17.87;;
12554;SDS011;6343;50.868;4.700;2023-04-06T10:57:07;29.80;;;17.77;;
12554;SDS011;6343;50.868;4.700;2023-04-06T10:59:33;26.37;;;16.40;;
12554;SDS011;6343;50.868;4.700;2023-04-06T11:01:59;15.87;;;9.73;;
12554;SDS011;6343;50.868;4.700;2023-04-06T11:04:26;44.70;;;27.27;;
12554;SDS011;6343;50.868;4.700;2023-04-06T11:06:52;37.77;;;22.07;;
12554;SDS011;6343;50.868;4.700;2023-04-06T11:09:26;18.03;;;12.20;;
12554;SDS011;6343;50.868;4.700;2023-04-06T11:11:53;39.53;;;23.77;;
12554;SDS011;6343;50.868;4.700;2023-04-06T11:14:20;26.50;;;15.30;;
12554;SDS011;6343;50.868;4.700;2023-04-06T11:16:46;32.07;;;19.07;;
12554;SDS011;6343;50.868;4.700;2023-04-06T11:19:16;39.20;;;23.53;;
12554;SDS011;6343;50.868;4.700;2023-04-06T11:24:12;24.97;;;14.77;;
12554;SDS011;6343;50.868;4.700;2023-04-06T11:26:43;25.33;;;15.37;;
12554;SDS011;6343;50.868;4.700;2023-04-06T11:29:10;20.13;;;12.70;;
12554;SDS011;6343;50.868;4.700;2023-04-06T11:31:37;20.87;;;12.57;;
12554;SDS011;6343;50.868;4.700;2023-04-06T11:34:08;19.97;;;12.40;;
12554;SDS011;6343;50.868;4.700;2023-04-06T11:36:35;25.03;;;16.37;;
12554;SDS011;6343;50.868;4.700;2023-04-06T11:39:02;18.20;;;12.77;;
12554;SDS011;6343;50.868;4.700;2023-04-06T11:41:29;21.13;;;13.93;;
12554;SDS011;6343;50.868;4.700;2023-04-06T11:43:55;23.63;;;15.83;;
12554;SDS011;6343;50.868;4.700;2023-04-06T11:46:21;23.90;;;13.80;;
12554;SDS011;6343;50.868;4.700;2023-04-06T11:48:47;15.80;;;9.70;;
12554;SDS011;6343;50.868;4.700;2023-04-06T11:51:21;11.13;;;7.87;;
12554;SDS011;6343;50.868;4.700;2023-04-06T11:53:48;17.23;;;11.00;;
12554;SDS011;6343;50.868;4.700;2023-04-06T11:56:27;13.97;;;9.23;;
12554;SDS011;6343;50.868;4.700;2023-04-06T11:59:12;17.63;;;10.43;;
12554;SDS011;6343;50.868;4.700;2023-04-06T12:01:44;14.23;;;9.80;;
12554;SDS011;6343;50.868;4.700;2023-04-06T12:04:11;10.80;;;7.57;;
12554;SDS011;6343;50.868;4.700;2023-04-06T12:06:37;18.87;;;12.40;;
12554;SDS011;6343;50.868;4.700;2023-04-06T12:09:03;24.63;;;14.10;;
12554;SDS011;6343;50.868;4.700;2023-04-06T12:11:29;23.03;;;13.47;;
12554;SDS011;6343;50.868;4.700;2023-04-06T12:13:55;26.43;;;14.87;;
12554;SDS011;6343;50.868;4.700;2023-04-06T12:16:21;17.47;;;11.80;;
12554;SDS011;6343;50.868;4.700;2023-04-06T12:18:47;20.10;;;10.27;;
12554;SDS011;6343;50.868;4.700;2023-04-06T12:21:13;14.67;;;9.43;;
12554;SDS011;6343;50.868;4.700;2023-04-06T12:23:39;17.67;;;10.90;;
12554;SDS011;6343;50.868;4.700;2023-04-06T12:26:06;19.77;;;12.83;;
12554;SDS011;6343;50.868;4.700;2023-04-06T12:28:32;15.40;;;10.07;;
12554;SDS011;6343;50.868;4.700;2023-04-06T12:30:58;15.67;;;10.23;;
12554;SDS011;6343;50.868;4.700;2023-04-06T12:33:24;22.97;;;14.63;;
12554;SDS011;6343;50.868;4.700;2023-04-06T12:35:50;22.80;;;14.23;;
12554;SDS011;6343;50.868;4.700;2023-04-06T12:38:16;15.70;;;10.10;;
12554;SDS011;6343;50.868;4.700;2023-04-06T12:40:42;18.37;;;11.77;;
12554;SDS011;6343;50.868;4.700;2023-04-06T12:43:08;14.97;;;9.60;;
12554;SDS011;6343;50.868;4.700;2023-04-06T12:45:35;17.23;;;11.00;;
12554;SDS011;6343;50.868;4.700;2023-04-06T12:48:01;33.77;;;19.43;;
12554;SDS011;6343;50.868;4.700;2023-04-06T12:50:27;16.77;;;10.63;;
12554;SDS011;6343;50.868;4.700;2023-04-06T12:52:53;19.53;;;11.43;;
12554;SDS011;6343;50.868;4.700;2023-04-06T12:55:19;18.33;;;11.33;;
12554;SDS011;6343;50.868;4.700;2023-04-06T12:57:46;16.87;;;10.30;;
12554;SDS011;6343;50.868;4.700;2023-04-06T13:00:12;19.87;;;12.53;;
12554;SDS011;6343;50.868;4.700;2023-04-06T13:02:39;19.70;;;13.17;;
12554;SDS011;6343;50.868;4.700;2023-04-06T13:05:11;18.57;;;12.43;;
12554;SDS011;6343;50.868;4.700;2023-04-06T13:07:37;20.80;;;14.00;;
12554;SDS011;6343;50.868;4.700;2023-04-06T13:10:03;22.43;;;13.80;;
12554;SDS011;6343;50.868;4.700;2023-04-06T13:12:30;19.87;;;13.30;;
12554;SDS011;6343;50.868;4.700;2023-04-06T13:14:56;20.67;;;14.30;;
12554;SDS011;6343;50.868;4.700;2023-04-06T13:17:22;25.77;;;17.77;;
12554;SDS011;6343;50.868;4.700;2023-04-06T13:19:48;16.97;;;10.77;;
12554;SDS011;6343;50.868;4.700;2023-04-06T13:22:14;15.97;;;11.33;;
12554;SDS011;6343;50.868;4.700;2023-04-06T13:24:41;13.97;;;10.03;;
12554;SDS011;6343;50.868;4.700;2023-04-06T13:27:07;17.40;;;12.27;;
12554;SDS011;6343;50.868;4.700;2023-04-06T13:29:33;29.10;;;19.90;;
12554;SDS011;6343;50.868;4.700;2023-04-06T13:32:00;23.13;;;14.87;;
12554;SDS011;6343;50.868;4.700;2023-04-06T13:34:26;10.97;;;8.17;;
12554;SDS011;6343;50.868;4.700;2023-04-06T13:36:52;11.80;;;8.50;;
12554;SDS011;6343;50.868;4.700;2023-04-06T13:39:18;11.37;;;8.30;;
12554;SDS011;6343;50.868;4.700;2023-04-06T13:41:44;17.57;;;11.53;;
12554;SDS011;6343;50.868;4.700;2023-04-06T13:44:11;14.10;;;9.17;;
12554;SDS011;6343;50.868;4.700;2023-04-06T13:46:37;18.90;;;10.93;;
12554;SDS011;6343;50.868;4.700;2023-04-06T13:49:03;11.87;;;9.07;;
12554;SDS011;6343;50.868;4.700;2023-04-06T13:51:29;15.30;;;9.83;;
12554;SDS011;6343;50.868;4.700;2023-04-06T13:53:55;13.30;;;9.20;;
12554;SDS011;6343;50.868;4.700;2023-04-06T13:56:21;14.03;;;10.03;;
12554;SDS011;6343;50.868;4.700;2023-04-06T13:58:48;16.37;;;10.63;;
12554;SDS011;6343;50.868;4.700;2023-04-06T14:01:14;12.93;;;9.00;;
12554;SDS011;6343;50.868;4.700;2023-04-06T14:03:40;14.30;;;9.50;;
12554;SDS011;6343;50.868;4.700;2023-04-06T14:06:10;13.63;;;9.37;;
12554;SDS011;6343;50.868;4.700;2023-04-06T14:08:36;17.33;;;9.20;;
12554;SDS011;6343;50.868;4.700;2023-04-06T14:11:02;12.03;;;8.90;;
12554;SDS011;6343;50.868;4.700;2023-04-06T14:13:29;12.10;;;7.53;;
12554;SDS011;6343;50.868;4.700;2023-04-06T14:15:55;16.03;;;9.63;;
12554;SDS011;6343;50.868;4.700;2023-04-06T14:18:22;12.50;;;8.60;;
12554;SDS011;6343;50.868;4.700;2023-04-06T14:20:55;11.33;;;8.37;;
12554;SDS011;6343;50.868;4.700;2023-04-06T14:23:21;16.83;;;10.50;;
12554;SDS011;6343;50.868;4.700;2023-04-06T14:25:47;12.37;;;8.73;;
12554;SDS011;6343;50.868;4.700;2023-04-06T14:28:14;15.40;;;8.80;;
12554;SDS011;6343;50.868;4.700;2023-04-06T14:30:40;13.30;;;9.70;;
12554;SDS011;6343;50.868;4.700;2023-04-06T14:33:06;13.47;;;9.47;;
12554;SDS011;6343;50.868;4.700;2023-04-06T14:35:32;10.73;;;8.33;;
12554;SDS011;6343;50.868;4.700;2023-04-06T14:37:58;14.77;;;8.33;;
12554;SDS011;6343;50.868;4.700;2023-04-06T14:40:25;10.93;;;7.93;;
12554;SDS011;6343;50.868;4.700;2023-04-06T14:42:51;9.43;;;7.17;;
12554;SDS011;6343;50.868;4.700;2023-04-06T14:45:17;10.97;;;7.87;;